Current Conditions
Clear
Conditions



Pressure
1031.92 (hPa) - 30.47 (inHG)
Visibility

10.0 (km) - 6.2 (miles)
   Temperature
1  °C
Temperature
0  °C
Dewpoint
93  %
 Humidity
   Wind Speed
2.7  m/s
6  mph
10  km/h
5  kts
   Wind Direction
N
45°
E
90°
135°
S
180°
225°
W
270°
315°
 330°

North North
West
   Airport Data
EKKA
Karup Airport
Metar :EKKA 021720Z AUTO 33005KT 9999 NCD 01/00 Q1032 BECMG 3000 BR BKN005
Tue 2nd March 18:20 pm
   Raw Metar Info
Raw METAR is the most common format in the world for the transmission of observational weather data. It is highly standardized through the International Civil Aviation Organization (ICAO), which allows it to be understood throughout most of the world.
   API Info
Data Provided by
https://www.checkwx.com/weather/EKKA

Aviation Weather providing METAR, TAF, AIRMET, SIGMET and OUTLOOK Weather Reports
   © Info
CSS/SVG/PHP scripts were developed by weather34.com for use in the weather34 template © 2015-2021

Guide Info provided by Metar-Wikipedia